createdAt,value
2023-05-02T00:00:11.511Z,993.71
2023-05-02T00:01:11.493Z,993.68
2023-05-02T00:02:11.541Z,993.73
2023-05-02T00:03:11.512Z,993.72
2023-05-02T00:04:11.584Z,993.72
2023-05-02T00:05:11.558Z,993.72
2023-05-02T00:06:11.476Z,993.70
2023-05-02T00:07:11.444Z,993.69
2023-05-02T00:08:11.431Z,993.69
2023-05-02T00:09:11.411Z,993.68
2023-05-02T00:10:11.411Z,993.69
2023-05-02T00:11:11.392Z,993.68
2023-05-02T00:12:11.382Z,993.73
2023-05-02T00:13:11.373Z,993.73
2023-05-02T00:14:11.343Z,993.76
2023-05-02T00:15:11.377Z,993.79
2023-05-02T00:16:11.363Z,993.75
2023-05-02T00:17:11.549Z,993.77
2023-05-02T00:18:11.376Z,993.77
2023-05-02T00:19:11.328Z,993.74
2023-05-02T00:20:11.369Z,993.74
2023-05-02T00:21:11.293Z,993.72
2023-05-02T00:22:11.293Z,993.74
2023-05-02T00:23:11.272Z,993.75
2023-05-02T00:24:11.289Z,993.73
2023-05-02T00:25:11.265Z,993.75
2023-05-02T00:26:11.242Z,993.72
2023-05-02T00:27:11.226Z,993.69
2023-05-02T00:28:11.255Z,993.70
2023-05-02T00:29:11.230Z,993.68
2023-05-02T00:30:11.241Z,993.74
2023-05-02T00:31:11.229Z,993.70
2023-05-02T00:32:11.178Z,993.66
2023-05-02T00:33:11.311Z,993.68
2023-05-02T00:34:11.197Z,993.66
2023-05-02T00:35:11.184Z,993.66
2023-05-02T00:36:11.142Z,993.63
2023-05-02T00:37:11.136Z,993.69
2023-05-02T00:38:11.122Z,993.69
2023-05-02T00:39:11.112Z,993.70
2023-05-02T00:40:11.127Z,993.71
2023-05-02T00:41:11.100Z,993.65
2023-05-02T00:42:11.094Z,993.66
2023-05-02T00:43:11.093Z,993.72
2023-05-02T00:44:11.063Z,993.69
2023-05-02T00:45:11.074Z,993.77
2023-05-02T00:46:11.083Z,993.79
2023-05-02T00:47:11.043Z,993.80
2023-05-02T00:48:11.158Z,993.75
2023-05-02T00:49:11.013Z,993.79
2023-05-02T00:50:11.037Z,993.88
2023-05-02T00:51:11.006Z,993.85
2023-05-02T00:52:10.992Z,993.85
2023-05-02T00:53:11.043Z,993.86
2023-05-02T00:54:10.986Z,993.87
2023-05-02T00:55:10.987Z,993.88
2023-05-02T00:56:10.944Z,993.84
2023-05-02T00:57:10.936Z,993.80
2023-05-02T00:58:10.953Z,993.76
2023-05-02T00:59:10.918Z,993.80
2023-05-02T01:00:10.947Z,993.76
2023-05-02T01:01:10.930Z,993.81
2023-05-02T01:02:10.918Z,993.84
2023-05-02T01:03:10.910Z,993.84
2023-05-02T01:04:10.937Z,993.84
2023-05-02T01:05:10.900Z,993.86
2023-05-02T01:06:10.869Z,993.85
2023-05-02T01:07:10.847Z,993.93
2023-05-02T01:08:10.832Z,993.86
2023-05-02T01:09:10.821Z,993.90
2023-05-02T01:10:10.845Z,993.94
2023-05-02T01:11:10.789Z,993.92
2023-05-02T01:12:10.799Z,993.99
2023-05-02T01:13:10.799Z,993.97
2023-05-02T01:14:10.780Z,994.02
2023-05-02T01:15:10.776Z,993.99
2023-05-02T01:16:10.800Z,993.99
2023-05-02T01:17:10.730Z,993.97
2023-05-02T01:18:10.748Z,993.97
2023-05-02T01:19:10.715Z,993.96
2023-05-02T01:20:10.729Z,994.04
2023-05-02T01:21:10.702Z,993.97
2023-05-02T01:22:10.683Z,994.06
2023-05-02T01:23:10.680Z,994.01
2023-05-02T01:24:10.683Z,994.05
2023-05-02T01:25:10.711Z,993.98
2023-05-02T01:26:10.667Z,994.01
2023-05-02T01:27:10.648Z,994.01
2023-05-02T01:28:10.626Z,994.05
2023-05-02T01:29:10.614Z,994.00
2023-05-02T01:30:10.644Z,994.12
2023-05-02T01:31:10.653Z,994.06
2023-05-02T01:32:10.599Z,994.05
2023-05-02T01:33:10.611Z,994.03
2023-05-02T01:34:10.560Z,994.11
2023-05-02T01:35:10.601Z,994.06
2023-05-02T01:36:10.556Z,994.03
2023-05-02T01:37:10.527Z,994.11
2023-05-02T01:38:10.521Z,994.08
2023-05-02T01:39:10.529Z,994.11
2023-05-02T01:40:10.528Z,994.09
2023-05-02T01:41:10.595Z,994.13
2023-05-02T01:42:10.494Z,994.05
2023-05-02T01:43:10.499Z,994.07
2023-05-02T01:44:10.504Z,994.09
2023-05-02T01:45:10.499Z,994.10
2023-05-02T01:46:10.475Z,994.11
2023-05-02T01:47:10.497Z,994.12
2023-05-02T01:48:10.481Z,994.05
2023-05-02T01:49:10.432Z,994.13
2023-05-02T01:50:10.477Z,994.11
2023-05-02T01:51:10.419Z,994.11
2023-05-02T01:52:10.392Z,994.14
2023-05-02T01:53:10.383Z,994.16
2023-05-02T01:54:10.374Z,994.15
2023-05-02T01:55:10.397Z,994.13
2023-05-02T01:56:10.352Z,994.04
2023-05-02T01:57:10.344Z,994.08
2023-05-02T01:58:10.345Z,994.13
2023-05-02T01:59:10.335Z,994.08
2023-05-02T02:00:10.353Z,994.07
2023-05-02T02:01:10.374Z,994.12
2023-05-02T02:02:10.307Z,994.08
2023-05-02T02:03:11.311Z,994.12
2023-05-02T02:04:10.335Z,994.12
2023-05-02T02:05:10.305Z,994.12
2023-05-02T02:06:10.342Z,994.18
2023-05-02T02:07:10.268Z,994.18
2023-05-02T02:08:10.248Z,994.16
2023-05-02T02:09:10.224Z,994.19
2023-05-02T02:10:10.277Z,994.21
2023-05-02T02:11:10.208Z,994.21
2023-05-02T02:12:10.212Z,994.19
2023-05-02T02:13:10.211Z,994.28
2023-05-02T02:14:10.187Z,994.23
2023-05-02T02:15:10.184Z,994.22
2023-05-02T02:16:10.207Z,994.21
2023-05-02T02:17:10.198Z,994.12
2023-05-02T02:18:10.215Z,994.17
2023-05-02T02:19:10.135Z,994.14
2023-05-02T02:20:10.159Z,994.19
2023-05-02T02:21:10.102Z,994.19
2023-05-02T02:22:10.116Z,994.28
2023-05-02T02:23:10.106Z,994.30
2023-05-02T02:24:10.080Z,994.36
2023-05-02T02:25:10.116Z,994.37
2023-05-02T02:26:10.089Z,994.37
2023-05-02T02:27:10.071Z,994.33
2023-05-02T02:28:10.070Z,994.33
2023-05-02T02:29:10.036Z,994.35
2023-05-02T02:30:10.050Z,994.41
2023-05-02T02:31:10.065Z,994.35
2023-05-02T02:32:10.013Z,994.39
2023-05-02T02:33:10.050Z,994.42
2023-05-02T02:34:09.985Z,994.43
2023-05-02T02:35:10.003Z,994.45
2023-05-02T02:36:09.965Z,994.49
2023-05-02T02:37:09.958Z,994.49
2023-05-02T02:38:10.027Z,994.44
2023-05-02T02:39:09.932Z,994.50
2023-05-02T02:40:09.952Z,994.51
2023-05-02T02:41:09.912Z,994.48
2023-05-02T02:42:09.903Z,994.50
2023-05-02T02:43:09.921Z,994.49
2023-05-02T02:44:11.608Z,994.52
2023-05-02T02:45:09.878Z,994.53
2023-05-02T02:46:09.870Z,994.52
2023-05-02T02:47:09.841Z,994.55
2023-05-02T02:48:09.907Z,994.59
2023-05-02T02:49:09.831Z,994.57
2023-05-02T02:50:10.010Z,994.60
2023-05-02T02:51:09.817Z,994.62
2023-05-02T02:52:09.793Z,994.61
2023-05-02T02:53:09.800Z,994.61
2023-05-02T02:54:23.028Z,994.63
2023-05-02T02:55:11.813Z,994.65
2023-05-02T02:56:09.763Z,994.67
2023-05-02T02:57:09.749Z,994.71
2023-05-02T02:58:09.732Z,994.68
2023-05-02T02:59:09.725Z,994.77
2023-05-02T03:00:09.784Z,994.69
2023-05-02T03:01:09.738Z,994.77
2023-05-02T03:02:09.809Z,994.77
2023-05-02T03:03:09.868Z,994.82
2023-05-02T03:04:09.693Z,994.83
2023-05-02T03:05:09.690Z,994.79
2023-05-02T03:06:09.705Z,994.81
2023-05-02T03:07:09.663Z,994.92
2023-05-02T03:08:09.630Z,994.95
2023-05-02T03:09:09.663Z,994.93
2023-05-02T03:10:09.643Z,994.91
2023-05-02T03:11:09.634Z,994.88
2023-05-02T03:12:09.611Z,994.93
2023-05-02T03:13:09.602Z,994.89
2023-05-02T03:14:09.573Z,994.93
2023-05-02T03:15:09.578Z,994.92
2023-05-02T03:16:10.746Z,994.90
2023-05-02T03:17:09.544Z,994.95
2023-05-02T03:18:09.596Z,995.00
2023-05-02T03:19:09.569Z,994.96
2023-05-02T03:20:09.549Z,994.95
2023-05-02T03:21:09.570Z,994.95
2023-05-02T03:22:09.520Z,995.01
2023-05-02T03:23:09.492Z,995.07
2023-05-02T03:24:09.512Z,995.01
2023-05-02T03:25:09.491Z,995.06
2023-05-02T03:26:09.503Z,995.07
2023-05-02T03:27:09.460Z,995.05
2023-05-02T03:28:09.461Z,995.04
2023-05-02T03:29:09.448Z,994.99
2023-05-02T03:30:09.462Z,995.05
2023-05-02T03:31:09.459Z,994.95
2023-05-02T03:32:09.512Z,995.04
2023-05-02T03:33:09.523Z,995.00
2023-05-02T03:34:09.408Z,995.03
2023-05-02T03:35:09.392Z,995.03
2023-05-02T03:36:09.375Z,995.09
2023-05-02T03:37:09.369Z,995.03
2023-05-02T03:38:09.345Z,995.08
2023-05-02T03:39:09.350Z,995.07
2023-05-02T03:40:09.323Z,995.11
2023-05-02T03:41:09.355Z,995.11
2023-05-02T03:42:09.321Z,995.09
2023-05-02T03:43:09.333Z,995.10
2023-05-02T03:44:09.297Z,995.10
2023-05-02T03:45:09.281Z,995.20
2023-05-02T03:46:09.328Z,995.16
2023-05-02T03:47:09.411Z,995.21
2023-05-02T03:48:09.296Z,995.22
2023-05-02T03:49:09.262Z,995.27
2023-05-02T03:50:09.279Z,995.22
2023-05-02T03:51:09.262Z,995.31
2023-05-02T03:52:09.225Z,995.26
2023-05-02T03:53:09.211Z,995.24
2023-05-02T03:54:09.188Z,995.25
2023-05-02T03:55:09.203Z,995.28
2023-05-02T03:56:09.216Z,995.28
2023-05-02T03:57:09.187Z,995.30
2023-05-02T03:58:09.161Z,995.26
2023-05-02T03:59:10.204Z,995.32
2023-05-02T04:00:09.142Z,995.30
2023-05-02T04:01:09.173Z,995.31
2023-05-02T04:02:09.171Z,995.36
2023-05-02T04:03:09.191Z,995.31
2023-05-02T04:04:09.144Z,995.34
2023-05-02T04:05:09.097Z,995.38
2023-05-02T04:06:09.213Z,995.34
2023-05-02T04:07:10.067Z,995.38
2023-05-02T04:08:09.068Z,995.37
2023-05-02T04:09:09.056Z,995.38
2023-05-02T04:10:09.038Z,995.36
2023-05-02T04:11:09.044Z,995.38
2023-05-02T04:12:09.009Z,995.43
2023-05-02T04:13:40.923Z,995.37
2023-05-02T04:14:08.993Z,995.35
2023-05-02T04:15:08.971Z,995.36
2023-05-02T04:16:08.978Z,995.46
2023-05-02T04:17:08.978Z,995.45
2023-05-02T04:18:09.001Z,995.45
2023-05-02T04:19:08.933Z,995.45
2023-05-02T04:20:09.083Z,995.43
2023-05-02T04:21:08.947Z,995.46
2023-05-02T04:22:08.895Z,995.43
2023-05-02T04:23:08.893Z,995.55
2023-05-02T04:24:08.895Z,995.53
2023-05-02T04:25:08.871Z,995.62
2023-05-02T04:26:08.876Z,995.61
2023-05-02T04:27:08.857Z,995.58
2023-05-02T04:28:08.834Z,995.58
2023-05-02T04:29:08.839Z,995.63
2023-05-02T04:30:08.823Z,995.58
2023-05-02T04:31:08.906Z,995.66
2023-05-02T04:32:08.808Z,995.63
2023-05-02T04:33:08.861Z,995.67
2023-05-02T04:34:08.774Z,995.68
2023-05-02T04:35:08.767Z,995.71
2023-05-02T04:36:08.851Z,995.70
2023-05-02T04:37:08.745Z,995.78
2023-05-02T04:38:08.744Z,995.74
2023-05-02T04:39:08.725Z,995.77
2023-05-02T04:40:08.724Z,995.77
2023-05-02T04:41:09.676Z,995.83
2023-05-02T04:42:08.708Z,995.76
2023-05-02T04:43:08.689Z,995.80
2023-05-02T04:44:08.687Z,995.82
2023-05-02T04:45:08.664Z,995.86
2023-05-02T04:46:08.737Z,995.82
2023-05-02T04:47:08.641Z,995.85
2023-05-02T04:48:08.669Z,995.83
2023-05-02T04:49:08.628Z,995.92
2023-05-02T04:50:08.652Z,995.92
2023-05-02T04:51:08.625Z,995.88
2023-05-02T04:52:08.638Z,996.00
2023-05-02T04:53:08.591Z,995.98
2023-05-02T04:54:08.572Z,995.98
2023-05-02T04:55:08.574Z,995.99
2023-05-02T04:56:08.576Z,996.03
2023-05-02T04:57:08.541Z,996.05
2023-05-02T04:58:08.534Z,996.04
2023-05-02T04:59:08.532Z,996.11
2023-05-02T05:00:08.523Z,996.09
2023-05-02T05:01:08.553Z,996.11
2023-05-02T05:02:08.700Z,996.09
2023-05-02T05:03:08.523Z,996.05
2023-05-02T05:04:08.632Z,996.07
2023-05-02T05:05:08.515Z,996.14
2023-05-02T05:06:08.498Z,996.14
2023-05-02T05:07:08.622Z,996.18
2023-05-02T05:08:08.427Z,996.14
2023-05-02T05:09:08.420Z,996.20
2023-05-02T05:10:08.439Z,996.20
2023-05-02T05:11:08.408Z,996.20
2023-05-02T05:12:08.417Z,996.22
2023-05-02T05:13:08.404Z,996.20
2023-05-02T05:14:08.378Z,996.24
2023-05-02T05:15:08.403Z,996.23
2023-05-02T05:16:08.417Z,996.24
2023-05-02T05:17:08.386Z,996.28
2023-05-02T05:18:08.407Z,996.25
2023-05-02T05:19:08.352Z,996.27
2023-05-02T05:20:09.586Z,996.26
2023-05-02T05:21:08.327Z,996.24
2023-05-02T05:22:08.400Z,996.28
2023-05-02T05:23:08.280Z,996.32
2023-05-02T05:24:08.288Z,996.28
2023-05-02T05:25:08.477Z,996.37
2023-05-02T05:26:08.263Z,996.33
2023-05-02T05:27:08.301Z,996.37
2023-05-02T05:28:08.236Z,996.33
2023-05-02T05:29:08.280Z,996.38
2023-05-02T05:30:08.219Z,996.33
2023-05-02T05:31:08.219Z,996.36
2023-05-02T05:32:08.316Z,996.38
2023-05-02T05:33:08.323Z,996.40
2023-05-02T05:34:08.203Z,996.44
2023-05-02T05:35:08.165Z,996.47
2023-05-02T05:36:08.160Z,996.52
2023-05-02T05:37:08.205Z,996.51
2023-05-02T05:38:08.143Z,996.51
2023-05-02T05:39:08.128Z,996.53
2023-05-02T05:40:08.123Z,996.53
2023-05-02T05:41:08.110Z,996.56
2023-05-02T05:42:08.140Z,996.52
2023-05-02T05:43:08.081Z,996.56
2023-05-02T05:44:08.088Z,996.60
2023-05-02T05:45:08.096Z,996.61
2023-05-02T05:46:08.081Z,996.61
2023-05-02T05:47:08.178Z,996.60
2023-05-02T05:48:08.137Z,996.59
2023-05-02T05:49:08.035Z,996.68
2023-05-02T05:50:08.050Z,996.59
2023-05-02T05:51:08.027Z,996.63
2023-05-02T05:52:08.064Z,996.70
2023-05-02T05:53:08.005Z,996.69
2023-05-02T05:54:08.022Z,996.69
2023-05-02T05:55:07.981Z,996.65
2023-05-02T05:56:08.012Z,996.73
2023-05-02T05:57:08.012Z,996.78
2023-05-02T05:58:07.963Z,996.75
2023-05-02T05:59:07.949Z,996.68
2023-05-02T06:00:07.931Z,996.75
2023-05-02T06:01:07.907Z,996.77
2023-05-02T06:02:08.989Z,996.76
2023-05-02T06:03:09.930Z,996.70
2023-05-02T06:04:08.982Z,996.78
2023-05-02T06:05:07.914Z,996.73
2023-05-02T06:06:07.902Z,996.80
2023-05-02T06:07:07.892Z,996.84
2023-05-02T06:08:07.846Z,996.78
2023-05-02T06:09:07.835Z,996.79
2023-05-02T06:10:07.843Z,996.78
2023-05-02T06:11:07.824Z,996.82
2023-05-02T06:12:07.858Z,996.89
2023-05-02T06:13:07.799Z,996.90
2023-05-02T06:14:07.825Z,996.94
2023-05-02T06:15:07.788Z,996.91
2023-05-02T06:16:07.792Z,996.89
2023-05-02T06:17:07.808Z,996.92
2023-05-02T06:18:07.896Z,996.94
2023-05-02T06:19:07.771Z,996.93
2023-05-02T06:20:07.758Z,997.02
2023-05-02T06:21:07.745Z,996.99
2023-05-02T06:22:07.754Z,997.03
2023-05-02T06:23:07.696Z,996.98
2023-05-02T06:24:07.701Z,996.97
2023-05-02T06:25:07.661Z,997.04
2023-05-02T06:26:07.679Z,997.03
2023-05-02T06:27:07.715Z,997.09
2023-05-02T06:28:07.648Z,997.05
2023-05-02T06:29:07.654Z,997.01
2023-05-02T06:30:07.638Z,997.03
2023-05-02T06:31:07.806Z,997.14
2023-05-02T06:32:07.708Z,997.14
2023-05-02T06:33:07.716Z,997.22
2023-05-02T06:34:07.584Z,997.18
2023-05-02T06:35:08.085Z,997.22
2023-05-02T06:36:07.574Z,997.21
2023-05-02T06:37:07.574Z,997.21
2023-05-02T06:38:07.538Z,997.32
2023-05-02T06:39:07.532Z,997.26
2023-05-02T06:40:07.505Z,997.33
2023-05-02T06:41:07.501Z,997.33
2023-05-02T06:42:07.515Z,997.29
2023-05-02T06:43:07.497Z,997.39
2023-05-02T06:44:07.466Z,997.38
2023-05-02T06:45:07.457Z,997.32
2023-05-02T06:46:07.497Z,997.39
2023-05-02T06:47:07.541Z,997.43
2023-05-02T06:48:07.470Z,997.36
2023-05-02T06:49:07.415Z,997.41
2023-05-02T06:50:07.406Z,997.42
2023-05-02T06:51:07.391Z,997.62
2023-05-02T06:52:07.417Z,997.58
2023-05-02T06:53:07.396Z,997.43
2023-05-02T06:54:07.376Z,997.49
2023-05-02T06:55:07.360Z,997.55
2023-05-02T06:56:07.353Z,997.57
2023-05-02T06:57:07.543Z,997.56
2023-05-02T06:58:07.335Z,997.57
2023-05-02T06:59:07.322Z,997.59
2023-05-02T07:00:07.315Z,997.58
2023-05-02T07:01:07.390Z,997.68
2023-05-02T07:02:07.326Z,997.58
2023-05-02T07:03:07.343Z,997.68
2023-05-02T07:04:07.290Z,997.54
2023-05-02T07:05:07.257Z,997.56
2023-05-02T07:06:07.293Z,997.49
2023-05-02T07:07:07.254Z,997.58
2023-05-02T07:08:07.227Z,997.62
2023-05-02T07:09:07.219Z,997.59
2023-05-02T07:10:07.212Z,997.61
2023-05-02T07:11:07.197Z,997.66
2023-05-02T07:12:07.280Z,997.60
2023-05-02T07:13:07.200Z,997.55
2023-05-02T07:14:07.168Z,997.61
2023-05-02T07:15:07.218Z,997.57
2023-05-02T07:16:07.198Z,997.65
2023-05-02T07:17:07.292Z,997.63
2023-05-02T07:18:07.223Z,997.70
2023-05-02T07:19:07.139Z,997.62
2023-05-02T07:20:07.124Z,997.68
2023-05-02T07:21:07.099Z,997.62
2023-05-02T07:22:07.091Z,997.61
2023-05-02T07:23:07.176Z,997.69
2023-05-02T07:24:07.064Z,997.74
2023-05-02T07:25:07.047Z,997.74
2023-05-02T07:26:07.052Z,997.71
2023-05-02T07:27:07.045Z,997.73
2023-05-02T07:28:08.071Z,997.75
2023-05-02T07:29:07.035Z,997.73
2023-05-02T07:30:07.014Z,997.80
2023-05-02T07:31:07.015Z,997.73
2023-05-02T07:32:07.033Z,997.71
2023-05-02T07:33:07.067Z,997.77
2023-05-02T07:34:06.975Z,997.78
2023-05-02T07:35:06.956Z,997.80
2023-05-02T07:36:06.947Z,997.71
2023-05-02T07:37:06.929Z,997.77
2023-05-02T07:38:06.958Z,997.82
2023-05-02T07:39:06.923Z,997.86
2023-05-02T07:40:06.936Z,997.90
2023-05-02T07:41:06.912Z,997.87
2023-05-02T07:42:06.905Z,997.81
2023-05-02T07:43:07.899Z,997.83
2023-05-02T07:44:06.893Z,997.91
2023-05-02T07:45:06.861Z,997.85
2023-05-02T07:46:06.951Z,997.86
2023-05-02T07:47:06.872Z,997.90
2023-05-02T07:48:06.935Z,998.02
2023-05-02T07:49:06.844Z,997.94
2023-05-02T07:50:06.823Z,997.93
2023-05-02T07:51:06.832Z,997.95
2023-05-02T07:52:06.819Z,997.91
2023-05-02T07:53:06.828Z,997.99
2023-05-02T07:54:06.803Z,997.98
2023-05-02T07:55:06.777Z,997.95
2023-05-02T07:56:06.788Z,997.98
2023-05-02T07:57:06.765Z,997.95
2023-05-02T07:58:06.792Z,997.96
2023-05-02T07:59:06.746Z,997.99
2023-05-02T08:00:06.731Z,998.03
2023-05-02T08:01:06.710Z,998.02
2023-05-02T08:02:06.728Z,998.05
2023-05-02T08:03:06.848Z,998.06
2023-05-02T08:04:06.871Z,998.05
2023-05-02T08:05:06.772Z,998.05
2023-05-02T08:06:06.725Z,998.13
2023-05-02T08:07:06.667Z,998.13
2023-05-02T08:08:06.682Z,998.09
2023-05-02T08:09:06.660Z,998.05
2023-05-02T08:10:06.646Z,998.12
2023-05-02T08:11:06.637Z,998.11
2023-05-02T08:12:06.621Z,998.14
2023-05-02T08:13:06.631Z,998.18
2023-05-02T08:14:06.603Z,998.18
2023-05-02T08:15:06.821Z,998.23
2023-05-02T08:16:06.648Z,998.21
2023-05-02T08:17:06.568Z,998.19
2023-05-02T08:18:06.607Z,998.19
2023-05-02T08:19:06.546Z,998.20
2023-05-02T08:20:06.542Z,998.28
2023-05-02T08:21:06.551Z,998.27
2023-05-02T08:22:06.518Z,998.23
2023-05-02T08:23:06.544Z,998.29
2023-05-02T08:24:06.488Z,998.29
2023-05-02T08:25:06.492Z,998.29
2023-05-02T08:26:06.487Z,998.36
2023-05-02T08:27:06.464Z,998.33
2023-05-02T08:28:06.468Z,998.23
2023-05-02T08:29:06.451Z,998.27
2023-05-02T08:30:06.967Z,998.26
2023-05-02T08:31:06.549Z,998.28
2023-05-02T08:32:06.542Z,998.24
2023-05-02T08:33:06.496Z,998.39
2023-05-02T08:34:06.399Z,998.34
2023-05-02T08:35:06.367Z,998.32
2023-05-02T08:36:06.384Z,998.39
2023-05-02T08:37:06.360Z,998.53
2023-05-02T08:38:06.383Z,998.41
2023-05-02T08:39:06.345Z,998.37
2023-05-02T08:40:06.363Z,998.46
2023-05-02T08:41:06.341Z,998.44
2023-05-02T08:42:07.311Z,998.45
2023-05-02T08:43:06.355Z,998.51
2023-05-02T08:44:06.295Z,998.44
2023-05-02T08:45:06.280Z,998.48
2023-05-02T08:46:06.268Z,998.45
2023-05-02T08:47:06.337Z,998.55
2023-05-02T08:48:06.368Z,998.59
2023-05-02T08:49:06.249Z,998.49
2023-05-02T08:50:06.236Z,998.49
2023-05-02T08:51:06.223Z,998.53
2023-05-02T08:52:06.206Z,998.54
2023-05-02T08:53:06.265Z,998.64
2023-05-02T08:54:06.182Z,998.55
2023-05-02T08:55:06.181Z,998.56
2023-05-02T08:56:06.171Z,998.61
2023-05-02T08:57:06.169Z,998.63
2023-05-02T08:58:06.205Z,998.64
2023-05-02T08:59:06.132Z,998.68
2023-05-02T09:00:06.151Z,998.74
2023-05-02T09:01:06.157Z,998.78
2023-05-02T09:02:06.133Z,998.76
2023-05-02T09:03:06.190Z,998.75
2023-05-02T09:04:06.133Z,998.70
2023-05-02T09:05:06.096Z,998.70
2023-05-02T09:06:06.133Z,998.72
2023-05-02T09:07:06.065Z,998.75
2023-05-02T09:08:06.080Z,998.75
2023-05-02T09:09:06.041Z,998.81
2023-05-02T09:10:06.029Z,998.90
2023-05-02T09:11:06.025Z,998.92
2023-05-02T09:12:06.020Z,998.88
2023-05-02T09:13:06.024Z,998.83
2023-05-02T09:14:05.993Z,998.93
2023-05-02T09:15:05.973Z,998.90
2023-05-02T09:16:06.000Z,998.90
2023-05-02T09:17:05.998Z,998.99
2023-05-02T09:18:06.073Z,998.94
2023-05-02T09:19:05.944Z,999.14
2023-05-02T09:20:05.938Z,999.01
2023-05-02T09:21:05.919Z,999.03
2023-05-02T09:22:05.912Z,999.22
2023-05-02T09:23:05.920Z,999.17
2023-05-02T09:24:05.901Z,999.14
2023-05-02T09:25:05.896Z,999.08
2023-05-02T09:26:05.877Z,999.21
2023-05-02T09:27:05.874Z,999.20
2023-05-02T09:28:05.873Z,999.27
2023-05-02T09:29:05.838Z,999.27
2023-05-02T09:30:05.848Z,999.33
2023-05-02T09:31:05.865Z,999.29
2023-05-02T09:32:05.905Z,999.34
2023-05-02T09:33:05.857Z,999.35
2023-05-02T09:34:05.823Z,999.51
2023-05-02T09:35:05.785Z,999.33
2023-05-02T09:36:05.768Z,999.38
2023-05-02T09:37:05.853Z,999.33
2023-05-02T09:38:05.757Z,999.42
2023-05-02T09:39:05.786Z,999.30
2023-05-02T09:40:05.746Z,999.31
2023-05-02T09:41:05.789Z,999.34
2023-05-02T09:42:05.722Z,999.27
2023-05-02T09:43:05.707Z,999.34
2023-05-02T09:44:05.741Z,999.41
2023-05-02T09:45:05.691Z,999.37
2023-05-02T09:46:05.750Z,999.39
2023-05-02T09:47:05.670Z,999.42
2023-05-02T09:48:05.676Z,999.42
2023-05-02T09:49:05.686Z,999.60
2023-05-02T09:50:05.619Z,999.40
2023-05-02T09:51:05.662Z,999.65
2023-05-02T09:52:05.600Z,999.57
2023-05-02T09:53:05.634Z,999.60
2023-05-02T09:54:05.595Z,999.61
2023-05-02T09:55:05.581Z,999.48
2023-05-02T09:56:05.582Z,999.38
2023-05-02T09:57:05.556Z,999.52
2023-05-02T09:58:05.588Z,999.45
2023-05-02T09:59:05.546Z,999.54
2023-05-02T10:00:05.529Z,999.49
2023-05-02T10:01:05.561Z,999.54
2023-05-02T10:02:05.526Z,999.58
2023-05-02T10:03:05.561Z,999.62
2023-05-02T10:04:05.564Z,999.56
2023-05-02T10:05:05.484Z,999.55
2023-05-02T10:06:05.640Z,999.58
2023-05-02T10:07:05.446Z,999.85
2023-05-02T10:08:05.470Z,999.61
2023-05-02T10:09:05.459Z,999.55
2023-05-02T10:10:05.442Z,999.69
2023-05-02T10:11:05.489Z,999.73
2023-05-02T10:12:05.418Z,999.59
2023-05-02T10:13:05.456Z,999.70
2023-05-02T10:14:05.389Z,999.51
2023-05-02T10:15:07.301Z,999.66
2023-05-02T10:16:37.782Z,999.59
2023-05-02T10:17:05.372Z,999.55
2023-05-02T10:18:05.414Z,999.56
2023-05-02T10:19:05.337Z,999.64
2023-05-02T10:20:05.332Z,999.63
2023-05-02T10:21:05.313Z,999.56
2023-05-02T10:22:05.312Z,999.62
2023-05-02T10:23:05.313Z,999.94
2023-05-02T10:24:05.286Z,999.84
2023-05-02T10:25:05.432Z,999.63
2023-05-02T10:26:05.273Z,999.80
2023-05-02T10:27:05.261Z,999.95
2023-05-02T10:28:06.162Z,999.78
2023-05-02T10:29:05.238Z,999.78
2023-05-02T10:30:05.238Z,999.78
2023-05-02T10:31:05.232Z,999.67
2023-05-02T10:32:05.249Z,999.75
2023-05-02T10:33:05.275Z,999.71
2023-05-02T10:34:05.186Z,999.80
2023-05-02T10:35:05.225Z,999.80
2023-05-02T10:36:05.169Z,999.79
2023-05-02T10:37:05.158Z,999.94
2023-05-02T10:38:05.173Z,999.92
2023-05-02T10:39:05.150Z,999.75
2023-05-02T10:40:05.164Z,999.71
2023-05-02T10:41:05.114Z,999.72
2023-05-02T10:42:05.139Z,999.86
2023-05-02T10:43:05.098Z,999.74
2023-05-02T10:44:05.089Z,999.71
2023-05-02T10:45:05.184Z,999.78
2023-05-02T10:46:05.068Z,999.87
2023-05-02T10:47:05.117Z,999.80
2023-05-02T10:48:05.138Z,999.93
2023-05-02T10:49:05.057Z,999.82
2023-05-02T10:50:05.048Z,999.82
2023-05-02T10:51:05.029Z,999.78
2023-05-02T10:52:05.015Z,999.75
2023-05-02T10:53:05.022Z,999.73
2023-05-02T10:54:04.986Z,999.83
2023-05-02T10:55:04.985Z,999.72
2023-05-02T10:56:04.980Z,999.84
2023-05-02T10:57:04.964Z,999.76
2023-05-02T10:58:05.010Z,999.68
2023-05-02T10:59:04.940Z,999.81
2023-05-02T11:00:04.939Z,999.82
2023-05-02T11:01:04.997Z,999.77
2023-05-02T11:02:07.101Z,999.70
2023-05-02T11:03:06.042Z,999.79
2023-05-02T11:04:04.907Z,999.76
2023-05-02T11:05:05.219Z,999.89
2023-05-02T11:06:04.907Z,999.92
2023-05-02T11:07:04.877Z,999.88
2023-05-02T11:08:04.977Z,1000.03
2023-05-02T11:09:04.846Z,999.90
2023-05-02T11:10:04.834Z,999.87
2023-05-02T11:11:04.825Z,999.89
2023-05-02T11:12:04.886Z,999.96
2023-05-02T11:13:04.824Z,999.98
2023-05-02T11:14:04.798Z,1000.05
2023-05-02T11:15:04.801Z,1000.02
2023-05-02T11:16:04.805Z,1000.09
2023-05-02T11:17:04.840Z,1000.08
2023-05-02T11:18:04.850Z,1000.35
2023-05-02T11:19:04.751Z,1000.08
2023-05-02T11:20:04.784Z,999.96
2023-05-02T11:21:04.799Z,1000.17
2023-05-02T11:22:04.729Z,1000.26
2023-05-02T11:23:04.730Z,1000.32
2023-05-02T11:24:04.710Z,1000.32
2023-05-02T11:25:04.692Z,1000.33
2023-05-02T11:26:04.683Z,1000.30
2023-05-02T11:27:04.673Z,1000.32
2023-05-02T11:28:04.693Z,1000.24
2023-05-02T11:29:04.646Z,1000.36
2023-05-02T11:30:04.655Z,1000.25
2023-05-02T11:31:04.635Z,1000.30
2023-05-02T11:32:04.704Z,1000.18
2023-05-02T11:33:04.692Z,1000.38
2023-05-02T11:34:04.650Z,1000.30
2023-05-02T11:35:04.610Z,1000.31
2023-05-02T11:36:04.597Z,1000.38
2023-05-02T11:37:04.573Z,1000.50
2023-05-02T11:38:04.620Z,1000.41
2023-05-02T11:39:04.554Z,1000.44
2023-05-02T11:40:04.548Z,1000.60
2023-05-02T11:41:04.671Z,1000.51
2023-05-02T11:42:04.544Z,1000.63
2023-05-02T11:43:04.537Z,1000.45
2023-05-02T11:44:04.502Z,1000.56
2023-05-02T11:45:04.740Z,1000.54
2023-05-02T11:46:04.542Z,1000.57
2023-05-02T11:47:04.493Z,1000.63
2023-05-02T11:48:04.727Z,1000.72
2023-05-02T11:49:06.282Z,1000.51
2023-05-02T11:50:04.465Z,1000.79
2023-05-02T11:51:04.437Z,1000.61
2023-05-02T11:52:04.423Z,1000.50
2023-05-02T11:53:04.433Z,1000.51
2023-05-02T11:54:04.404Z,1000.59
2023-05-02T11:55:04.515Z,1000.59
2023-05-02T11:56:04.398Z,1000.57
2023-05-02T11:57:04.375Z,1000.71
2023-05-02T11:58:04.387Z,1000.64
2023-05-02T11:59:04.375Z,1000.65
2023-05-02T12:00:04.339Z,1000.64
2023-05-02T12:01:04.334Z,1000.75
2023-05-02T12:02:04.394Z,1000.65
2023-05-02T12:03:05.427Z,1000.68
2023-05-02T12:04:04.316Z,1000.76
2023-05-02T12:05:04.819Z,1000.74
2023-05-02T12:06:04.511Z,1000.69
2023-05-02T12:07:04.344Z,1000.67
2023-05-02T12:08:04.274Z,1000.78
2023-05-02T12:09:04.268Z,1000.74
2023-05-02T12:10:04.255Z,1000.78
2023-05-02T12:11:04.249Z,1000.85
2023-05-02T12:12:04.218Z,1000.85
2023-05-02T12:13:04.217Z,1000.77
2023-05-02T12:14:04.197Z,1000.76
2023-05-02T12:15:04.379Z,1000.83
2023-05-02T12:16:04.239Z,1000.77
2023-05-02T12:17:04.210Z,1000.81
2023-05-02T12:18:04.256Z,1000.89
2023-05-02T12:19:04.142Z,1000.79
2023-05-02T12:20:04.149Z,1000.70
2023-05-02T12:21:04.170Z,1000.79
2023-05-02T12:22:04.125Z,1000.68
2023-05-02T12:23:04.118Z,1000.73
2023-05-02T12:24:04.120Z,1000.76
2023-05-02T12:25:04.516Z,1000.87
2023-05-02T12:26:04.118Z,1000.84